Time;durP1;ratioP1;P1;durP2;ratioP2;P2;SDS_P1;SDS_P2;PMS_P1;PMS_P2;Temp;Humidity;BMP_temperature;BMP_pressure;BME280_temperature;BME280_humidity;BME280_pressure;Samples;Min_cycle;Max_cycle;Signal;HPM_P1;HPM_P2
2023/06/28 00:01:56;;;;;;;8.60;5.30;;;;;;;19.58;61.28;98633.96;82252;1291;3018197;-64
2023/06/28 00:04:23;;;;;;;10.40;5.20;;;;;;;19.59;60.69;98634.85;82233;1289;3011460;-67
2023/06/28 00:06:50;;;;;;;11.80;4.70;;;;;;;19.61;60.44;98628.11;81034;1290;3025549;-67
2023/06/28 00:09:17;;;;;;;8.90;4.80;;;;;;;19.63;60.06;98626.11;82245;1290;3012509;-65
2023/06/28 00:11:44;;;;;;;10.40;4.60;;;;;;;19.63;59.83;98621.17;82236;1290;3011424;-69
2023/06/28 00:14:12;;;;;;;8.30;5.00;;;;;;;19.61;59.94;98616.68;81002;1290;3027675;-65
2023/06/28 00:16:39;;;;;;;9.20;5.10;;;;;;;19.59;60.32;98610.53;82249;1290;3018164;-66
2023/06/28 00:19:06;;;;;;;10.50;5.50;;;;;;;19.55;60.83;98609.95;82241;1290;3011214;-67
2023/06/28 00:21:35;;;;;;;12.80;5.40;;;;;;;19.49;61.68;98610.39;80978;1290;3053228;-66
2023/06/28 00:24:01;;;;;;;8.40;5.00;;;;;;;19.43;61.91;98616.02;82324;1290;3013038;-68
2023/06/28 00:26:28;;;;;;;10.80;4.80;;;;;;;19.42;61.83;98615.66;82275;1290;3011140;-66
2023/06/28 00:28:56;;;;;;;8.30;4.70;;;;;;;19.41;61.84;98614.36;80964;1291;3025585;-66
2023/06/28 00:31:23;;;;;;;8.30;4.10;;;;;;;19.39;62.11;98610.10;82242;1290;3012795;-67
2023/06/28 00:33:49;;;;;;;7.20;4.50;;;;;;;19.40;62.17;98603.92;82247;1290;3011413;-72
2023/06/28 00:36:17;;;;;;;8.10;4.30;;;;;;;19.38;62.24;98603.67;81039;1290;3026506;-66
2023/06/28 00:38:44;;;;;;;7.90;4.20;;;;;;;19.34;62.41;98598.63;82278;1290;3018593;-68
2023/06/28 00:41:11;;;;;;;8.00;4.30;;;;;;;19.31;62.29;98597.36;82247;1290;3011350;-64
2023/06/28 00:43:39;;;;;;;7.00;4.60;;;;;;;19.29;62.77;98594.05;81025;1290;3025545;-64
2023/06/28 00:46:05;;;;;;;6.40;4.00;;;;;;;19.28;62.66;98593.21;82195;1291;3012821;-68
2023/06/28 00:48:32;;;;;;;6.90;4.30;;;;;;;19.26;63.10;98591.89;82233;1290;3011505;-64
2023/06/28 00:51:01;;;;;;;7.10;4.40;;;;;;;19.23;62.97;98596.86;80809;1296;3026563;-66
2023/06/28 00:53:27;;;;;;;7.00;4.10;;;;;;;19.22;62.80;98588.70;82141;1293;3012555;-64
2023/06/28 00:55:56;;;;;;;6.60;4.20;;;;;;;19.25;62.87;98590.66;82088;1291;3011116;-67
2023/06/28 00:58:25;;;;;;;6.40;4.00;;;;;;;19.22;63.15;98589.84;80894;1290;3055124;-68
2023/06/28 01:00:52;;;;;;;4.00;3.40;;;;;;;19.18;63.36;98594.17;82129;1290;3012775;-63
2023/06/28 01:03:19;;;;;;;6.90;4.20;;;;;;;19.21;62.95;98599.33;82184;1291;3011216;-66
2023/06/28 01:05:48;;;;;;;8.70;4.10;;;;;;;19.20;63.08;98596.50;81001;1290;3052483;-64
2023/06/28 01:08:15;;;;;;;5.40;3.50;;;;;;;19.17;63.30;98598.40;82173;1293;3013537;-63
2023/06/28 01:10:42;;;;;;;8.70;3.60;;;;;;;19.20;63.12;98592.87;82166;1291;3010840;-66
2023/06/28 01:13:10;;;;;;;6.50;3.80;;;;;;;19.21;63.05;98588.90;80974;1290;3055474;-67
2023/06/28 01:15:37;;;;;;;5.90;3.80;;;;;;;19.24;62.79;98588.36;82095;1291;3018172;-65
2023/06/28 01:18:05;;;;;;;7.10;4.00;;;;;;;19.22;62.80;98591.27;82084;1291;3011267;-63
2023/06/28 01:20:35;;;;;;;11.00;3.80;;;;;;;19.17;62.96;98589.24;81004;1290;3053131;-63
2023/06/28 01:23:02;;;;;;;5.90;3.90;;;;;;;19.18;62.97;98587.23;82277;1290;3012596;-66
2023/06/28 01:25:29;;;;;;;8.00;4.00;;;;;;;19.20;62.85;98589.84;82208;1291;3011533;-65
2023/06/28 01:27:57;;;;;;;8.20;3.90;;;;;;;19.19;63.25;98591.88;80853;1291;3055378;-67
2023/06/28 01:30:25;;;;;;;6.00;3.30;;;;;;;19.18;63.61;98590.81;82125;1291;3013154;-68
2023/06/28 01:32:52;;;;;;;7.30;3.30;;;;;;;19.16;63.82;98588.73;82168;1291;3011221;-65
2023/06/28 01:35:21;;;;;;;5.90;3.80;;;;;;;19.09;64.27;98593.29;81005;1290;3051522;-65
2023/06/28 01:37:49;;;;;;;5.80;3.10;;;;;;;19.08;64.66;98586.48;82265;1291;3011237;-64
2023/06/28 01:40:16;;;;;;;6.00;3.70;;;;;;;19.05;65.22;98590.27;82166;1289;3011217;-67
2023/06/28 01:46:12;;;;;;;5.40;3.50;;;;;;;18.96;65.77;98591.09;79943;1299;3011947;-66
2023/06/28 01:48:39;;;;;;;5.60;3.40;;;;;;;18.91;65.48;98591.45;79006;1301;3013178;-64
2023/06/28 01:51:06;;;;;;;5.70;3.50;;;;;;;18.95;65.10;98595.27;78823;1302;3012836;-67
2023/06/28 01:53:34;;;;;;;8.90;3.30;;;;;;;18.92;65.65;98592.58;77995;1301;3052341;-64
2023/06/28 01:56:00;;;;;;;5.10;3.10;;;;;;;18.91;65.73;98595.08;79343;1299;3020592;-64
2023/06/28 01:58:32;;;;;;;5.60;3.60;;;;;;;18.90;66.27;98595.81;76797;1295;5751737;-64
2023/06/28 02:00:59;;;;;;;12.10;3.50;;;;;;;18.87;66.30;98592.77;79226;1295;3013576;-65
2023/06/28 02:03:26;;;;;;;5.10;3.50;;;;;;;18.80;66.35;98592.80;79508;1294;3011984;-68
2023/06/28 02:05:55;;;;;;;5.90;3.40;;;;;;;18.86;65.99;98588.56;78335;1295;3050511;-63
2023/06/28 02:08:21;;;;;;;4.50;3.30;;;;;;;18.86;65.23;98589.50;79668;1297;3013607;-64
2023/06/28 02:10:48;;;;;;;4.80;3.20;;;;;;;18.84;65.09;98586.66;79515;1295;3013247;-67
2023/06/28 02:13:16;;;;;;;4.20;2.60;;;;;;;18.85;64.66;98587.20;78250;1296;3051186;-69
2023/06/28 02:15:43;;;;;;;5.60;3.40;;;;;;;18.86;64.58;98587.65;79557;1298;3013188;-66
2023/06/28 02:18:10;;;;;;;5.90;3.00;;;;;;;18.88;64.80;98586.25;79521;1296;3013554;-67
2023/06/28 02:20:38;;;;;;;5.80;3.10;;;;;;;18.86;65.30;98584.88;78408;1298;3050004;-62
2023/06/28 02:23:05;;;;;;;5.30;3.30;;;;;;;18.81;66.00;98583.79;79636;1298;3013760;-66
2023/06/28 02:25:32;;;;;;;5.60;3.30;;;;;;;18.78;66.24;98580.23;79685;1295;3011847;-65
2023/06/28 02:28:00;;;;;;;3.80;3.20;;;;;;;18.73;66.48;98587.31;78394;1297;3051153;-63
2023/06/28 02:30:26;;;;;;;5.50;3.40;;;;;;;18.75;65.91;98593.45;79514;1297;3012892;-65
2023/06/28 02:32:53;;;;;;;6.20;3.10;;;;;;;18.77;65.75;98592.13;79649;1295;3011560;-63
2023/06/28 02:35:21;;;;;;;5.50;3.30;;;;;;;18.79;65.68;98598.56;78205;1295;3028076;-66
2023/06/28 02:37:47;;;;;;;4.90;3.00;;;;;;;18.81;65.47;98591.77;79547;1295;3018604;-67
2023/06/28 02:40:14;;;;;;;6.50;3.20;;;;;;;18.87;64.96;98591.27;79615;1297;3011440;-64
2023/06/28 02:42:42;;;;;;;6.70;3.20;;;;;;;18.92;64.92;98591.45;78380;1297;3025830;-64
2023/06/28 02:45:10;;;;;;;5.10;3.60;;;;;;;18.94;64.63;98592.13;79551;1298;3013166;-61
2023/06/28 02:47:38;;;;;;;6.90;3.10;;;;;;;18.92;64.67;98591.99;79670;1294;3013189;-62
2023/06/28 02:50:07;;;;;;;5.10;3.00;;;;;;;18.95;64.59;98593.40;78423;1297;3049750;-66
2023/06/28 02:52:39;;;;;;;6.00;3.10;;;;;;;18.99;64.27;98586.65;79271;1294;3011602;-65
2023/06/28 02:55:09;;;;;;;5.20;3.40;;;;;;;18.99;64.45;98589.67;78307;1298;3052908;-64
2023/06/28 02:57:37;;;;;;;5.00;3.40;;;;;;;19.03;64.44;98581.19;79621;1295;3014216;-65
2023/06/28 03:00:11;;;;;;;4.00;3.00;;;;;;;19.08;64.57;98584.41;78251;1295;3055437;-66
2023/06/28 03:02:38;;;;;;;7.60;3.50;;;;;;;19.11;64.24;98583.20;79519;1296;3013228;-62
2023/06/28 03:05:05;;;;;;;7.50;3.30;;;;;;;19.16;64.42;98577.95;79606;1295;3011450;-62
2023/06/28 03:07:33;;;;;;;6.20;3.80;;;;;;;19.16;64.32;98581.56;78127;1301;3052648;-67
2023/06/28 03:10:00;;;;;;;6.20;3.10;;;;;;;19.15;64.27;98579.73;79818;1298;3013503;-64
2023/06/28 03:12:26;;;;;;;4.10;3.00;;;;;;;19.20;64.33;98574.10;79312;1296;3012875;-63
2023/06/28 03:14:56;;;;;;;7.20;3.40;;;;;;;19.16;64.67;98572.21;78332;1295;3055508;-63
2023/06/28 03:17:23;;;;;;;11.30;3.30;;;;;;;19.19;64.58;98574.21;79567;1295;3011758;-64
2023/06/28 03:19:50;;;;;;;9.40;3.10;;;;;;;19.19;64.66;98571.70;79522;1296;3011671;-63
2023/06/28 03:22:17;;;;;;;7.10;3.20;;;;;;;19.26;64.66;98568.20;78368;1298;3054143;-66
2023/06/28 03:24:44;;;;;;;7.70;3.10;;;;;;;19.28;65.11;98565.19;79585;1297;3012915;-65
2023/06/28 03:27:11;;;;;;;4.00;3.00;;;;;;;19.29;65.41;98566.10;79547;1294;3014074;-67
2023/06/28 03:29:40;;;;;;;6.30;3.00;;;;;;;19.29;65.86;98566.15;78398;1298;3055308;-66
2023/06/28 03:32:07;;;;;;;5.90;3.00;;;;;;;19.31;66.01;98564.69;79695;1295;3013587;-67
2023/06/28 03:34:35;;;;;;;5.60;3.30;;;;;;;19.30;66.26;98564.81;79723;1296;3011693;-67
2023/06/28 03:37:03;;;;;;;6.80;3.20;;;;;;;19.27;66.82;98567.42;78050;1301;3051640;-64
2023/06/28 03:39:30;;;;;;;5.00;3.50;;;;;;;19.31;66.79;98570.50;79292;1298;3012593;-66
2023/06/28 03:41:56;;;;;;;7.20;4.30;;;;;;;19.29;67.36;98573.73;79451;1298;3011711;-67
2023/06/28 03:44:24;;;;;;;9.30;5.10;;;;;;;19.27;67.79;98578.04;78231;1295;3025688;-66
2023/06/28 03:46:51;;;;;;;11.70;5.80;;;;;;;19.20;68.42;98579.52;79540;1294;3013447;-64
2023/06/28 03:49:19;;;;;;;14.40;6.40;;;;;;;19.15;68.84;98579.98;79570;1294;3011614;-65
2023/06/28 03:51:47;;;;;;;11.50;4.50;;;;;;;19.06;69.85;98580.52;78184;1301;3052321;-66
2023/06/28 03:54:14;;;;;;;9.70;5.20;;;;;;;19.59;68.50;98581.63;79299;1300;3013172;-66
2023/06/28 03:56:42;;;;;;;9.40;4.60;;;;;;;20.09;67.08;98588.30;79521;1294;3012915;-62
2023/06/28 03:59:10;;;;;;;13.50;4.80;;;;;;;20.19;66.66;98587.89;78100;1296;3056222;-67
2023/06/28 04:01:38;;;;;;;9.70;5.80;;;;;;;19.86;67.81;98594.52;79636;1294;3013228;-64
2023/06/28 04:04:04;;;;;;;12.50;6.20;;;;;;;19.42;69.72;98592.55;79615;1295;3011858;-63
2023/06/28 04:06:32;;;;;;;11.40;5.80;;;;;;;19.14;71.28;98589.33;78306;1295;3052433;-65
2023/06/28 04:08:59;;;;;;;11.60;6.00;;;;;;;19.12;71.56;98586.80;79559;1298;3019146;-66
2023/06/28 04:11:25;;;;;;;13.80;6.00;;;;;;;18.96;72.35;98592.15;79462;1295;3011656;-62
2023/06/28 04:13:53;;;;;;;11.20;6.20;;;;;;;18.87;73.18;98593.92;78351;1293;3027774;-65
2023/06/28 04:16:20;;;;;;;10.90;6.10;;;;;;;18.87;73.49;98589.94;79551;1296;3012811;-64
2023/06/28 04:18:46;;;;;;;14.70;5.20;;;;;;;18.81;74.07;98588.40;79487;1297;3011693;-64
2023/06/28 04:21:15;;;;;;;8.00;5.10;;;;;;;19.16;73.36;98587.12;78339;1295;3027299;-65
2023/06/28 04:23:41;;;;;;;11.30;5.70;;;;;;;19.58;71.78;98580.64;79753;1298;3019590;-66
2023/06/28 04:26:07;;;;;;;14.00;5.00;;;;;;;19.68;71.34;98576.88;79484;1295;3011785;-66
2023/06/28 04:28:36;;;;;;;11.30;5.80;;;;;;;19.47;72.27;98577.84;78423;1295;3029229;-70
2023/06/28 04:31:02;;;;;;;9.90;6.20;;;;;;;19.41;72.80;98568.00;79473;1295;3013368;-65
2023/06/28 04:33:30;;;;;;;9.50;6.40;;;;;;;19.31;73.29;98566.37;79359;1295;3011898;-62
2023/06/28 04:36:01;;;;;;;12.00;6.40;;;;;;;19.25;73.60;98558.96;78161;1301;3053974;-68
2023/06/28 04:38:32;;;;;;;14.10;6.00;;;;;;;19.23;73.81;98562.48;79423;1296;3011675;-70
2023/06/28 04:41:00;;;;;;;14.30;5.90;;;;;;;19.22;73.90;98573.70;78192;1298;3068628;-70
2023/06/28 04:43:26;;;;;;;10.20;5.50;;;;;;;19.17;74.29;98575.77;79515;1295;3019700;-68
2023/06/28 04:45:55;;;;;;;10.60;5.40;;;;;;;19.69;72.67;98566.18;79321;1295;3013190;-65
2023/06/28 04:48:23;;;;;;;17.50;6.60;;;;;;;20.11;71.01;98567.80;80571;1295;3054223;-68
2023/06/28 04:50:51;;;;;;;17.70;5.90;;;;;;;20.12;71.10;98566.05;81882;1298;3013259;-69
2023/06/28 04:53:17;;;;;;;19.10;7.10;;;;;;;20.24;70.89;98563.44;81399;1295;3011390;-67
2023/06/28 04:55:46;;;;;;;11.20;6.40;;;;;;;19.99;71.46;98561.88;78259;1294;3069168;-63
2023/06/28 04:58:13;;;;;;;10.00;6.30;;;;;;;19.99;71.78;98561.52;79468;1295;3013524;-66
2023/06/28 05:00:40;;;;;;;12.90;6.60;;;;;;;19.82;72.11;98561.26;79544;1295;3011528;-64
2023/06/28 05:03:10;;;;;;;9.70;6.00;;;;;;;19.61;72.84;98552.65;78171;1298;3053023;-65
2023/06/28 05:05:37;;;;;;;19.70;8.80;;;;;;;19.48;73.28;98560.52;79665;1295;3011811;-64
2023/06/28 05:08:07;;;;;;;14.50;7.60;;;;;;;19.45;73.73;98566.63;78282;1298;3025770;-63
2023/06/28 05:10:35;;;;;;;19.90;8.80;;;;;;;19.40;74.37;98565.45;79693;1298;3013643;-65
2023/06/28 05:13:05;;;;;;;22.40;8.00;;;;;;;20.01;72.50;98563.75;78863;1297;3011865;-67
2023/06/28 05:15:32;;;;;;;26.40;9.10;;;;;;;20.46;70.65;98561.83;79442;1295;3019164;-64
2023/06/28 05:17:59;;;;;;;34.20;12.40;;;;;;;20.57;70.20;98564.11;79596;1295;3013010;-69
2023/06/28 05:20:29;;;;;;;42.90;14.40;;;;;;;20.37;70.97;98569.34;78448;1295;3053331;-66
2023/06/28 05:23:12;;;;;;;40.70;13.70;;;;;;;20.07;72.15;98574.33;79536;1295;3013198;-72
2023/06/28 05:25:41;;;;;;;45.00;14.30;;;;;;;20.08;72.52;98571.23;78355;1295;3053375;-67
2023/06/28 05:28:09;;;;;;;48.30;15.30;;;;;;;19.98;73.12;98567.52;79590;1294;3019279;-69
2023/06/28 05:30:36;;;;;;;47.90;16.30;;;;;;;19.86;73.35;98568.38;79816;1296;3011611;-71
2023/06/28 05:33:05;;;;;;;53.20;16.60;;;;;;;19.74;74.06;98573.90;78288;1297;3055090;-65
2023/06/28 05:35:33;;;;;;;46.10;16.20;;;;;;;19.71;74.21;98574.29;79628;1295;3014841;-69
2023/06/28 05:38:00;;;;;;;42.50;15.20;;;;;;;20.20;73.03;98578.26;79441;1295;3011673;-68
2023/06/28 05:40:28;;;;;;;49.60;16.10;;;;;;;20.57;71.42;98576.51;78233;1298;3053223;-68
2023/06/28 05:42:57;;;;;;;47.90;16.20;;;;;;;20.64;71.26;98572.33;79706;1294;3013289;-67
2023/06/28 05:45:26;;;;;;;42.80;16.20;;;;;;;20.51;71.77;98572.25;79046;1295;3011927;-67
2023/06/28 05:47:53;;;;;;;40.90;14.60;;;;;;;20.31;73.01;98568.58;79309;1294;3020508;-70
2023/06/28 05:50:22;;;;;;;22.20;9.30;;;;;;;20.05;74.13;98566.91;79535;1294;3011618;-69
2023/06/28 05:52:50;;;;;;;27.20;10.40;;;;;;;19.91;75.31;98567.95;78313;1296;3054024;-68
2023/06/28 05:55:17;;;;;;;22.00;7.60;;;;;;;19.87;75.36;98562.70;79577;1300;3013733;-65
2023/06/28 05:57:45;;;;;;;15.90;6.00;;;;;;;19.78;76.06;98563.70;79263;1296;3011709;-70
2023/06/28 06:00:13;;;;;;;15.80;5.40;;;;;;;20.30;74.55;98566.87;78274;1296;3070689;-66
2023/06/28 06:02:40;;;;;;;13.40;5.10;;;;;;;20.71;72.84;98576.35;79652;1296;3013856;-70
2023/06/28 06:05:07;;;;;;;20.60;9.20;;;;;;;20.68;72.85;98584.14;79434;1295;3011798;-66
2023/06/28 06:07:39;;;;;;;42.80;16.40;;;;;;;20.59;73.49;98591.46;78268;1295;3053356;-67
2023/06/28 06:10:07;;;;;;;39.80;15.70;;;;;;;20.53;74.02;98591.61;79523;1298;3013764;-67
2023/06/28 06:12:36;;;;;;;32.90;13.10;;;;;;;20.45;74.48;98591.77;78280;1298;3028543;-67
2023/06/28 06:15:04;;;;;;;25.80;9.60;;;;;;;20.25;75.85;98595.50;79524;1299;3014771;-67
2023/06/28 06:17:31;;;;;;;17.70;6.30;;;;;;;20.22;76.47;98600.70;79681;1295;3011644;-66
2023/06/28 06:20:00;;;;;;;11.00;5.90;;;;;;;20.81;74.79;98603.89;78303;1300;3056239;-65
2023/06/28 06:22:27;;;;;;;11.30;6.30;;;;;;;21.38;72.35;98600.32;79383;1295;3013854;-67
2023/06/28 06:24:53;;;;;;;11.50;5.50;;;;;;;21.18;72.84;98600.74;79445;1295;3011659;-70
2023/06/28 06:27:21;;;;;;;16.40;6.40;;;;;;;21.08;73.29;98605.52;78531;1295;3052874;-66
2023/06/28 06:29:48;;;;;;;9.50;4.90;;;;;;;20.97;73.96;98603.95;79551;1299;3013420;-67
2023/06/28 06:33:29;;;;;;;12.50;6.10;;;;;;;20.97;74.29;98600.70;79956;1299;3013679;-66
2023/06/28 06:35:56;;;;;;;12.90;6.40;;;;;;;20.81;75.32;98600.15;79412;1301;3013192;-70
2023/06/28 06:38:22;;;;;;;9.00;5.20;;;;;;;20.77;75.90;98599.02;79211;1304;3011598;-62
2023/06/28 06:40:50;;;;;;;9.20;4.60;;;;;;;21.28;74.53;98598.51;78149;1302;3028069;-66
2023/06/28 06:43:17;;;;;;;9.60;5.50;;;;;;;21.82;72.41;98591.63;79012;1304;3018342;-66
2023/06/28 06:45:44;;;;;;;13.20;5.60;;;;;;;22.02;71.52;98590.55;77854;1302;3011989;-63
2023/06/28 06:48:12;;;;;;;12.10;4.90;;;;;;;21.90;71.41;98593.95;77975;1299;3049501;-63
2023/06/28 06:50:39;;;;;;;16.40;5.80;;;;;;;21.82;71.32;98588.88;79325;1299;3013022;-67
2023/06/28 06:53:07;;;;;;;9.70;6.40;;;;;;;21.64;72.48;98595.69;79118;1301;3011980;-65
2023/06/28 06:55:34;;;;;;;14.10;5.90;;;;;;;21.53;72.93;98598.60;78289;1301;3052890;-65
2023/06/28 06:58:01;;;;;;;11.00;5.70;;;;;;;21.56;73.24;98599.69;79478;1298;3013657;-64
2023/06/28 07:00:28;;;;;;;12.30;4.60;;;;;;;21.63;73.17;98600.23;79161;1301;3011489;-64
2023/06/28 07:02:55;;;;;;;12.20;4.50;;;;;;;22.30;70.97;98606.39;78229;1301;3026539;-67
2023/06/28 07:05:22;;;;;;;9.40;4.90;;;;;;;22.58;69.24;98609.76;79520;1300;3013354;-66
2023/06/28 07:07:49;;;;;;;9.40;5.20;;;;;;;22.62;68.91;98616.58;79394;1301;3012728;-68
2023/06/28 07:10:17;;;;;;;8.40;4.70;;;;;;;22.77;67.94;98629.66;78091;1298;3027973;-65
2023/06/28 07:12:45;;;;;;;9.10;5.20;;;;;;;22.58;68.29;98630.46;79575;1301;3013407;-68
2023/06/28 07:15:12;;;;;;;7.10;5.40;;;;;;;22.33;69.54;98630.99;79413;1296;3011871;-64
2023/06/28 07:17:40;;;;;;;12.50;5.80;;;;;;;22.25;69.38;98637.11;78214;1301;3049884;-63
2023/06/28 07:20:07;;;;;;;10.10;6.30;;;;;;;22.16;70.48;98631.11;79551;1300;3013425;-65
2023/06/28 07:22:34;;;;;;;8.00;5.20;;;;;;;22.14;70.69;98634.95;79394;1296;3013168;-65
2023/06/28 07:25:03;;;;;;;8.00;5.80;;;;;;;22.87;68.41;98638.80;78074;1301;3053053;-65
2023/06/28 07:27:30;;;;;;;8.00;6.10;;;;;;;23.22;67.03;98632.11;79349;1297;3013528;-64
2023/06/28 07:29:57;;;;;;;9.80;5.80;;;;;;;23.15;66.66;98626.33;79438;1296;3013237;-69
2023/06/28 07:32:26;;;;;;;9.70;6.20;;;;;;;23.20;66.04;98626.10;78512;1298;3049259;-64
2023/06/28 07:34:54;;;;;;;12.00;5.60;;;;;;;23.12;65.83;98618.55;79553;1296;3013326;-67
2023/06/28 07:37:24;;;;;;;11.80;6.70;;;;;;;23.24;64.87;98620.61;78438;1300;3052440;-65
2023/06/28 07:39:51;;;;;;;12.60;6.70;;;;;;;23.31;64.03;98620.95;79629;1298;3013127;-68
2023/06/28 07:42:20;;;;;;;12.40;7.20;;;;;;;23.28;62.15;98624.60;79529;1296;3011617;-66
2023/06/28 07:44:50;;;;;;;15.30;7.20;;;;;;;23.29;61.18;98628.77;78258;1298;3056466;-67
2023/06/28 07:47:16;;;;;;;13.00;6.20;;;;;;;23.33;60.10;98632.22;79517;1296;3013372;-68
2023/06/28 07:49:43;;;;;;;14.60;6.00;;;;;;;23.39;60.10;98642.11;79585;1298;3011850;-67
2023/06/28 07:52:11;;;;;;;12.30;6.50;;;;;;;23.34;59.86;98639.23;78395;1297;3026511;-64
2023/06/28 07:54:37;;;;;;;9.30;6.10;;;;;;;23.43;59.89;98640.36;79536;1298;3011432;-65
2023/06/28 07:57:04;;;;;;;12.20;6.50;;;;;;;23.43;59.78;98643.25;79440;1298;3011634;-67
2023/06/28 07:59:32;;;;;;;15.10;7.40;;;;;;;23.29;58.56;98636.77;78372;1298;3025725;-68
2023/06/28 08:01:59;;;;;;;12.70;7.80;;;;;;;23.21;57.73;98636.34;79561;1297;3013327;-63
2023/06/28 08:04:25;;;;;;;16.20;8.70;;;;;;;23.36;57.59;98637.80;79432;1295;3011901;-65
2023/06/28 08:06:53;;;;;;;26.70;10.40;;;;;;;23.35;57.23;98643.98;78388;1297;3026091;-67
2023/06/28 08:09:20;;;;;;;19.50;10.10;;;;;;;23.34;57.66;98641.55;79622;1295;3018889;-68
2023/06/28 08:11:47;;;;;;;17.50;9.80;;;;;;;23.52;57.69;98644.96;79528;1295;3011591;-68
2023/06/28 08:14:15;;;;;;;16.00;9.00;;;;;;;23.67;57.39;98637.25;78249;1298;3026050;-68
2023/06/28 08:16:45;;;;;;;16.60;8.90;;;;;;;23.66;57.32;98653.00;79593;1295;3012942;-66
2023/06/28 08:19:13;;;;;;;23.30;9.50;;;;;;;23.63;57.50;98656.82;79535;1295;3011376;-68
2023/06/28 08:21:41;;;;;;;23.50;9.20;;;;;;;23.55;57.73;98656.40;78221;1298;3052324;-66
2023/06/28 08:24:07;;;;;;;16.40;10.40;;;;;;;23.73;58.12;98653.16;79439;1301;3018949;-68
2023/06/28 08:26:36;;;;;;;23.90;10.10;;;;;;;23.55;58.27;98660.44;79557;1298;3011626;-63
2023/06/28 08:29:03;;;;;;;13.40;7.90;;;;;;;23.37;58.40;98657.94;78361;1295;3056872;-65
2023/06/28 08:31:30;;;;;;;11.30;7.40;;;;;;;23.12;58.87;98656.03;79508;1296;3018612;-65
2023/06/28 08:33:58;;;;;;;7.90;5.90;;;;;;;23.14;59.20;98661.10;79567;1294;3011817;-66
2023/06/28 08:36:28;;;;;;;12.70;6.50;;;;;;;23.25;59.13;98666.09;78328;1298;3052479;-66
2023/06/28 08:38:55;;;;;;;11.10;7.40;;;;;;;23.17;59.67;98670.93;79455;1295;3013660;-67
2023/06/28 08:41:22;;;;;;;11.80;7.30;;;;;;;22.88;60.75;98681.30;79700;1295;3013092;-66
2023/06/28 08:43:50;;;;;;;11.40;5.80;;;;;;;22.69;61.18;98673.98;78533;1296;3056713;-66
2023/06/28 08:46:17;;;;;;;10.80;6.10;;;;;;;22.61;61.68;98675.88;79468;1301;3013367;-67
2023/06/28 08:48:46;;;;;;;13.40;8.30;;;;;;;22.57;62.34;98687.29;79454;1295;3011623;-69
2023/06/28 08:51:15;;;;;;;12.80;8.10;;;;;;;22.43;63.13;98696.36;78322;1301;3053401;-64
2023/06/28 08:53:45;;;;;;;11.20;6.20;;;;;;;22.52;62.96;98698.94;79683;1298;3013200;-65
2023/06/28 08:56:13;;;;;;;10.60;5.90;;;;;;;22.02;65.35;98698.56;78182;1296;3068882;-65
2023/06/28 08:58:41;;;;;;;7.10;5.20;;;;;;;21.84;66.41;98693.95;79452;1295;3018974;-68
2023/06/28 09:01:08;;;;;;;9.30;5.40;;;;;;;21.86;66.12;98686.98;79542;1295;3011445;-70
2023/06/28 09:03:41;;;;;;;6.20;4.20;;;;;;;21.87;65.39;98694.09;78350;1294;3052715;-68
2023/06/28 09:06:08;;;;;;;5.80;4.50;;;;;;;21.90;66.11;98695.56;79611;1294;3013618;-65
2023/06/28 09:08:37;;;;;;;7.60;4.80;;;;;;;21.93;67.01;98699.46;78403;1298;3052627;-68
2023/06/28 09:11:03;;;;;;;7.10;4.10;;;;;;;21.79;67.26;98707.77;79645;1298;3014294;-67
2023/06/28 09:13:30;;;;;;;4.50;3.40;;;;;;;21.66;67.15;98707.74;79684;1296;3011698;-68
2023/06/28 09:15:58;;;;;;;6.20;4.40;;;;;;;21.45;68.26;98700.22;78390;1294;3055757;-70
2023/06/28 09:18:25;;;;;;;5.40;3.70;;;;;;;21.46;68.25;98698.31;79446;1296;3013095;-65
2023/06/28 09:20:52;;;;;;;5.40;3.60;;;;;;;21.42;68.34;98699.81;79790;1298;3011408;-68
2023/06/28 09:23:25;;;;;;;4.60;3.50;;;;;;;21.33;67.81;98699.50;78660;1298;3053563;-67
2023/06/28 09:25:51;;;;;;;5.20;3.40;;;;;;;21.39;67.61;98695.70;79896;1295;3011669;-68
2023/06/28 09:28:22;;;;;;;4.80;3.50;;;;;;;21.39;67.31;98693.09;78399;1298;3028236;-71
2023/06/28 09:30:56;;;;;;;8.20;3.60;;;;;;;21.32;67.69;98692.95;78211;1301;3051259;-68
2023/06/28 09:33:23;;;;;;;4.70;3.60;;;;;;;21.48;67.31;98697.89;79595;1296;3012899;-66
2023/06/28 09:35:56;;;;;;;4.80;3.70;;;;;;;21.67;66.73;98688.11;79421;1300;3011631;-68
2023/06/28 09:38:25;;;;;;;5.30;3.70;;;;;;;21.91;66.45;98691.20;78382;1298;3050575;-73
2023/06/28 09:41:02;;;;;;;6.30;4.40;;;;;;;22.06;65.68;98701.16;79662;1298;3012598;-71
2023/06/28 09:43:31;;;;;;;8.80;4.50;;;;;;;22.09;65.57;98707.33;78313;1300;3052288;-71
2023/06/28 09:46:19;;;;;;;7.90;4.90;;;;;;;22.16;65.20;98697.12;79567;1295;3013888;-69
2023/06/28 09:48:51;;;;;;;6.60;4.70;;;;;;;22.19;65.32;98686.51;78055;1295;3056796;-73
2023/06/28 09:51:18;;;;;;;7.50;5.40;;;;;;;22.38;65.07;98687.13;79351;1295;3012021;-71
2023/06/28 09:53:50;;;;;;;5.70;4.70;;;;;;;22.52;65.27;98688.98;78434;1298;3051725;-67
2023/06/28 09:56:16;;;;;;;7.20;4.60;;;;;;;22.46;65.55;98680.41;79546;1296;3013061;-70
2023/06/28 09:58:49;;;;;;;5.30;4.20;;;;;;;22.33;64.99;98676.23;78320;1298;3052145;-68
2023/06/28 10:01:16;;;;;;;10.10;4.50;;;;;;;22.20;65.29;98672.84;79658;1297;3013172;-66
2023/06/28 10:03:45;;;;;;;6.50;4.50;;;;;;;22.17;65.43;98677.46;79002;1301;3013186;-63
2023/06/28 10:06:12;;;;;;;7.20;4.10;;;;;;;22.22;65.44;98683.13;79520;1299;3013617;-68
2023/06/28 10:08:39;;;;;;;8.00;4.70;;;;;;;22.12;66.06;98685.13;79809;1295;3011655;-68
2023/06/28 10:11:09;;;;;;;8.70;4.90;;;;;;;22.18;66.22;98682.25;78224;1300;3026764;-68
2023/06/28 10:13:36;;;;;;;8.10;4.60;;;;;;;22.33;65.92;98691.42;79408;1298;3011983;-68
2023/06/28 10:16:08;;;;;;;6.30;4.50;;;;;;;22.32;65.64;98703.41;78715;1298;3011737;-67
2023/06/28 10:18:34;;;;;;;4.70;4.00;;;;;;;22.23;65.15;98704.41;79521;1296;3011429;-69
2023/06/28 10:21:06;;;;;;;5.70;3.10;;;;;;;22.39;64.87;98704.05;79014;1300;3011835;-69
2023/06/28 10:23:37;;;;;;;7.30;3.00;;;;;;;22.54;63.84;98703.02;79464;1295;3011615;-69
2023/06/28 10:26:06;;;;;;;3.20;2.40;;;;;;;22.73;61.67;98705.25;78444;1296;3057797;-67
2023/06/28 10:28:34;;;;;;;6.00;2.70;;;;;;;22.85;60.45;98712.61;79556;1296;3013909;-67
2023/06/28 10:31:04;;;;;;;5.10;2.30;;;;;;;22.97;59.79;98712.53;79470;1301;3011978;-67
2023/06/28 10:33:33;;;;;;;3.50;2.70;;;;;;;22.84;60.33;98712.55;78329;1301;3053513;-68
2023/06/28 10:36:02;;;;;;;2.70;2.30;;;;;;;22.91;59.98;98707.33;79731;1300;3013071;-71
2023/06/28 10:38:32;;;;;;;5.90;2.70;;;;;;;22.82;57.44;98707.31;79106;1301;3013375;-70
2023/06/28 10:41:01;;;;;;;4.70;2.60;;;;;;;22.45;58.29;98708.16;79407;1296;3014444;-71
2023/06/28 10:43:27;;;;;;;4.60;2.70;;;;;;;22.64;57.97;98705.23;79551;1301;3013100;-69
2023/06/28 10:45:55;;;;;;;6.70;2.90;;;;;;;22.79;56.77;98699.26;78159;1299;3053433;-66
2023/06/28 10:48:23;;;;;;;2.80;2.20;;;;;;;23.14;56.02;98702.09;79416;1298;3013024;-66
2023/06/28 10:50:50;;;;;;;3.20;2.20;;;;;;;23.39;55.41;98705.90;79662;1298;3013205;-65
2023/06/28 10:53:28;;;;;;;3.50;2.40;;;;;;;23.29;54.33;98731.05;78408;1296;3068515;-68
2023/06/28 10:56:05;;;;;;;7.40;3.10;;;;;;;22.95;54.89;98728.99;78386;1298;3052561;-65
2023/06/28 10:58:38;;;;;;;4.00;2.40;;;;;;;23.02;55.76;98730.14;78188;1298;3056724;-68
2023/06/28 11:01:06;;;;;;;6.30;2.60;;;;;;;22.98;56.63;98724.48;79478;1299;3011625;-67
2023/06/28 11:03:44;;;;;;;3.30;2.10;;;;;;;23.24;56.38;98721.40;78231;1298;3052840;-70
2023/06/28 11:06:12;;;;;;;3.20;2.30;;;;;;;23.22;56.09;98722.77;78297;1296;3050421;-66
2023/06/28 11:08:42;;;;;;;3.10;2.00;;;;;;;23.05;55.49;98734.07;79409;1295;3013656;-68
2023/06/28 11:11:22;;;;;;;3.10;2.20;;;;;;;23.23;55.26;98728.61;78741;1300;3011752;-71
2023/06/28 11:13:50;;;;;;;6.30;2.70;;;;;;;23.39;55.47;98723.38;78237;1296;3069494;-68
2023/06/28 11:16:20;;;;;;;4.40;2.30;;;;;;;23.39;54.25;98725.48;79384;1295;3012844;-68
2023/06/28 11:18:49;;;;;;;7.40;4.50;;;;;;;23.79;53.72;98719.25;78142;1298;3026625;-69
2023/06/28 11:21:22;;;;;;;8.60;5.20;;;;;;;23.71;53.11;98714.20;79531;1296;3013682;-67
2023/06/28 11:23:56;;;;;;;5.80;4.30;;;;;;;23.94;51.55;98722.41;78200;1296;3050194;-69